sensor_id;sensor_type;location;lat;lon;timestamp;temperature;humidity
52189;DHT22;38162;45.926;13.608;2022-11-15T07:32:40;11.40;98.50
52189;DHT22;38162;45.926;13.608;2022-11-15T07:35:06;11.40;98.60
52189;DHT22;38162;45.926;13.608;2022-11-15T07:37:32;11.40;98.50
52189;DHT22;38162;45.926;13.608;2022-11-15T07:39:58;11.40;98.40
52189;DHT22;38162;45.926;13.608;2022-11-15T07:42:23;11.50;98.50
52189;DHT22;38162;45.926;13.608;2022-11-15T07:45:08;11.50;98.50
52189;DHT22;38162;45.926;13.608;2022-11-15T07:47:34;11.40;98.50
52189;DHT22;38162;45.926;13.608;2022-11-15T07:49:59;11.50;98.50
52189;DHT22;38162;45.926;13.608;2022-11-15T07:52:25;11.50;98.40
52189;DHT22;38162;45.926;13.608;2022-11-15T07:54:51;11.50;98.30
52189;DHT22;38162;45.926;13.608;2022-11-15T07:57:16;11.60;98.30
52189;DHT22;38162;45.926;13.608;2022-11-15T07:59:42;11.50;98.20
52189;DHT22;38162;45.926;13.608;2022-11-15T08:02:09;11.60;98.30
52189;DHT22;38162;45.926;13.608;2022-11-15T08:04:35;11.60;98.30
52189;DHT22;38162;45.926;13.608;2022-11-15T08:07:00;11.60;98.30
52189;DHT22;38162;45.926;13.608;2022-11-15T08:09:26;11.60;98.50
52189;DHT22;38162;45.926;13.608;2022-11-15T08:11:52;11.60;98.50
52189;DHT22;38162;45.926;13.608;2022-11-15T08:14:17;11.60;98.40
52189;DHT22;38162;45.926;13.608;2022-11-15T08:16:43;11.70;98.40
52189;DHT22;38162;45.926;13.608;2022-11-15T08:19:08;11.70;98.40
52189;DHT22;38162;45.926;13.608;2022-11-15T08:21:34;11.70;98.30
52189;DHT22;38162;45.926;13.608;2022-11-15T08:24:00;11.80;98.20
52189;DHT22;38162;45.926;13.608;2022-11-15T08:26:26;11.80;98.20
52189;DHT22;38162;45.926;13.608;2022-11-15T08:28:54;11.80;98.10
52189;DHT22;38162;45.926;13.608;2022-11-15T08:31:20;11.80;98.10
52189;DHT22;38162;45.926;13.608;2022-11-15T08:33:45;11.90;98.10
52189;DHT22;38162;45.926;13.608;2022-11-15T08:36:13;11.90;98.10
52189;DHT22;38162;45.926;13.608;2022-11-15T08:38:40;11.90;98.10
52189;DHT22;38162;45.926;13.608;2022-11-15T08:41:05;12.00;98.10
52189;DHT22;38162;45.926;13.608;2022-11-15T08:43:32;11.90;98.10
52189;DHT22;38162;45.926;13.608;2022-11-15T08:45:58;12.00;98.00
52189;DHT22;38162;45.926;13.608;2022-11-15T08:48:24;12.00;98.00
52189;DHT22;38162;45.926;13.608;2022-11-15T08:50:54;12.00;97.80
52189;DHT22;38162;45.926;13.608;2022-11-15T09:50:58;12.90;96.50
52189;DHT22;38162;45.926;13.608;2022-11-15T09:53:42;13.00;96.20
52189;DHT22;38162;45.926;13.608;2022-11-15T09:56:18;13.10;96.00
52189;DHT22;38162;45.926;13.608;2022-11-15T09:59:03;13.10;95.80
52189;DHT22;38162;45.926;13.608;2022-11-15T10:01:39;13.20;95.80
52189;DHT22;38162;45.926;13.608;2022-11-15T10:04:07;13.20;95.70
52189;DHT22;38162;45.926;13.608;2022-11-15T10:06:36;13.30;95.60
52189;DHT22;38162;45.926;13.608;2022-11-15T10:09:12;13.40;95.50
52189;DHT22;38162;45.926;13.608;2022-11-15T10:11:39;13.40;95.30
52189;DHT22;38162;45.926;13.608;2022-11-15T10:14:13;13.50;95.20
52189;DHT22;38162;45.926;13.608;2022-11-15T10:24:35;13.70;94.60
52189;DHT22;38162;45.926;13.608;2022-11-15T10:27:09;13.80;94.40
52189;DHT22;38162;45.926;13.608;2022-11-15T10:29:36;13.80;94.20
52189;DHT22;38162;45.926;13.608;2022-11-15T10:32:01;13.80;94.20
52189;DHT22;38162;45.926;13.608;2022-11-15T10:34:27;13.80;94.20
52189;DHT22;38162;45.926;13.608;2022-11-15T10:36:59;13.80;94.00
52189;DHT22;38162;45.926;13.608;2022-11-15T10:39:27;13.80;93.90
52189;DHT22;38162;45.926;13.608;2022-11-15T10:41:53;13.70;93.90
52189;DHT22;38162;45.926;13.608;2022-11-15T10:44:25;13.70;93.90
52189;DHT22;38162;45.926;13.608;2022-11-15T10:49:21;13.70;93.90
52189;DHT22;38162;45.926;13.608;2022-11-15T10:54:37;13.60;94.20
52189;DHT22;38162;45.926;13.608;2022-11-15T10:57:17;13.60;94.40
52189;DHT22;38162;45.926;13.608;2022-11-15T10:59:55;13.60;94.50
52189;DHT22;38162;45.926;13.608;2022-11-15T11:03:05;13.60;94.60
52189;DHT22;38162;45.926;13.608;2022-11-15T11:05:39;13.60;94.80
52189;DHT22;38162;45.926;13.608;2022-11-15T11:08:23;13.60;94.70
52189;DHT22;38162;45.926;13.608;2022-11-15T11:10:53;13.60;94.90
52189;DHT22;38162;45.926;13.608;2022-11-15T11:13:39;13.70;95.00
52189;DHT22;38162;45.926;13.608;2022-11-15T11:19:08;13.70;95.00
52189;DHT22;38162;45.926;13.608;2022-11-15T11:30:29;13.70;95.00
52189;DHT22;38162;45.926;13.608;2022-11-15T11:36:24;13.60;94.90
52189;DHT22;38162;45.926;13.608;2022-11-15T11:41:34;13.60;94.80
52189;DHT22;38162;45.926;13.608;2022-11-15T11:49:51;13.60;94.80
52189;DHT22;38162;45.926;13.608;2022-11-15T11:52:34;13.60;94.80
52189;DHT22;38162;45.926;13.608;2022-11-15T11:55:22;13.60;94.90
52189;DHT22;38162;45.926;13.608;2022-11-15T12:00:38;13.70;95.10
52189;DHT22;38162;45.926;13.608;2022-11-15T12:03:15;13.70;95.10
52189;DHT22;38162;45.926;13.608;2022-11-15T12:05:48;13.70;94.90
52189;DHT22;38162;45.926;13.608;2022-11-15T12:08:35;13.70;94.80
52189;DHT22;38162;45.926;13.608;2022-11-15T12:11:27;13.70;94.80
52189;DHT22;38162;45.926;13.608;2022-11-15T12:14:00;13.80;94.60
52189;DHT22;38162;45.926;13.608;2022-11-15T12:16:29;13.80;94.50
52189;DHT22;38162;45.926;13.608;2022-11-15T12:18:58;13.80;94.40
52189;DHT22;38162;45.926;13.608;2022-11-15T12:25:06;13.70;94.30
52189;DHT22;38162;45.926;13.608;2022-11-15T12:28:01;13.70;94.20
52189;DHT22;38162;45.926;13.608;2022-11-15T12:30:38;13.70;94.30
52189;DHT22;38162;45.926;13.608;2022-11-15T12:36:41;13.70;94.40
52189;DHT22;38162;45.926;13.608;2022-11-15T12:41:30;13.70;94.30
52189;DHT22;38162;45.926;13.608;2022-11-15T12:43:56;13.70;94.20
52189;DHT22;38162;45.926;13.608;2022-11-15T12:49:02;13.70;94.40
52189;DHT22;38162;45.926;13.608;2022-11-15T12:59:50;13.70;94.40
52189;DHT22;38162;45.926;13.608;2022-11-15T13:02:27;13.80;94.50
52189;DHT22;38162;45.926;13.608;2022-11-15T13:17:46;13.80;94.50
52189;DHT22;38162;45.926;13.608;2022-11-15T13:28:31;13.80;94.70
52189;DHT22;38162;45.926;13.608;2022-11-15T13:31:00;13.80;94.20
52189;DHT22;38162;45.926;13.608;2022-11-15T13:33:36;13.80;94.10
52189;DHT22;38162;45.926;13.608;2022-11-15T13:36:22;13.80;93.90
52189;DHT22;38162;45.926;13.608;2022-11-15T13:39:23;13.80;93.90
52189;DHT22;38162;45.926;13.608;2022-11-15T13:41:51;13.80;93.80
52189;DHT22;38162;45.926;13.608;2022-11-15T13:44:23;13.80;93.80
52189;DHT22;38162;45.926;13.608;2022-11-15T13:47:13;13.80;93.80
52189;DHT22;38162;45.926;13.608;2022-11-15T13:49:39;13.80;93.80
52189;DHT22;38162;45.926;13.608;2022-11-15T13:52:07;13.80;93.90
52189;DHT22;38162;45.926;13.608;2022-11-15T13:54:38;13.80;93.90
52189;DHT22;38162;45.926;13.608;2022-11-15T13:57:29;13.80;93.90
52189;DHT22;38162;45.926;13.608;2022-11-15T13:59:59;13.80;93.90
52189;DHT22;38162;45.926;13.608;2022-11-15T14:02:35;13.80;93.90
52189;DHT22;38162;45.926;13.608;2022-11-15T14:05:18;13.80;93.90
52189;DHT22;38162;45.926;13.608;2022-11-15T14:07:56;13.80;93.90
52189;DHT22;38162;45.926;13.608;2022-11-15T14:10:34;13.80;93.90
52189;DHT22;38162;45.926;13.608;2022-11-15T14:13:00;13.80;93.90
52189;DHT22;38162;45.926;13.608;2022-11-15T14:15:35;13.80;94.00
52189;DHT22;38162;45.926;13.608;2022-11-15T14:18:02;13.70;94.10
52189;DHT22;38162;45.926;13.608;2022-11-15T14:23:04;13.70;94.20
52189;DHT22;38162;45.926;13.608;2022-11-15T14:25:31;13.70;94.30
52189;DHT22;38162;45.926;13.608;2022-11-15T14:28:16;13.70;94.30
52189;DHT22;38162;45.926;13.608;2022-11-15T14:30:43;13.70;94.30
52189;DHT22;38162;45.926;13.608;2022-11-15T14:33:38;13.70;94.30
52189;DHT22;38162;45.926;13.608;2022-11-15T14:38:39;13.70;94.40
52189;DHT22;38162;45.926;13.608;2022-11-15T14:41:05;13.70;94.40
52189;DHT22;38162;45.926;13.608;2022-11-15T14:43:31;13.70;94.40
52189;DHT22;38162;45.926;13.608;2022-11-15T14:45:57;13.70;94.40
52189;DHT22;38162;45.926;13.608;2022-11-15T14:48:22;13.70;94.40
52189;DHT22;38162;45.926;13.608;2022-11-15T14:50:48;13.60;94.40
52189;DHT22;38162;45.926;13.608;2022-11-15T14:53:18;13.60;94.50
52189;DHT22;38162;45.926;13.608;2022-11-15T14:55:45;13.60;94.50
52189;DHT22;38162;45.926;13.608;2022-11-15T14:58:10;13.60;94.50
52189;DHT22;38162;45.926;13.608;2022-11-15T15:00:38;13.60;94.50
52189;DHT22;38162;45.926;13.608;2022-11-15T15:03:05;13.60;94.50
52189;DHT22;38162;45.926;13.608;2022-11-15T15:05:36;13.60;94.50
52189;DHT22;38162;45.926;13.608;2022-11-15T15:08:03;13.60;94.50
52189;DHT22;38162;45.926;13.608;2022-11-15T15:10:37;13.60;94.60
52189;DHT22;38162;45.926;13.608;2022-11-15T15:13:04;13.60;94.60
52189;DHT22;38162;45.926;13.608;2022-11-15T15:15:35;13.50;94.60
52189;DHT22;38162;45.926;13.608;2022-11-15T15:18:02;13.60;94.70
52189;DHT22;38162;45.926;13.608;2022-11-15T15:20:28;13.50;94.70
52189;DHT22;38162;45.926;13.608;2022-11-15T15:22:54;13.50;94.80
52189;DHT22;38162;45.926;13.608;2022-11-15T15:25:27;13.50;94.80
52189;DHT22;38162;45.926;13.608;2022-11-15T15:27:54;13.50;94.90
52189;DHT22;38162;45.926;13.608;2022-11-15T15:30:23;13.50;95.10
52189;DHT22;38162;45.926;13.608;2022-11-15T15:32:50;13.50;95.10
52189;DHT22;38162;45.926;13.608;2022-11-15T15:35:16;13.50;95.10
52189;DHT22;38162;45.926;13.608;2022-11-15T15:37:44;13.50;95.00
52189;DHT22;38162;45.926;13.608;2022-11-15T15:40:19;13.50;95.00
52189;DHT22;38162;45.926;13.608;2022-11-15T15:42:46;13.50;95.20
52189;DHT22;38162;45.926;13.608;2022-11-15T15:45:12;13.50;95.30
52189;DHT22;38162;45.926;13.608;2022-11-15T15:47:38;13.40;95.30
52189;DHT22;38162;45.926;13.608;2022-11-15T15:52:42;13.50;95.40
52189;DHT22;38162;45.926;13.608;2022-11-15T15:55:08;13.40;95.70
52189;DHT22;38162;45.926;13.608;2022-11-15T15:57:34;13.40;95.40
52189;DHT22;38162;45.926;13.608;2022-11-15T15:59:59;13.40;95.40
52189;DHT22;38162;45.926;13.608;2022-11-15T16:02:25;13.50;95.50
52189;DHT22;38162;45.926;13.608;2022-11-15T16:04:51;13.40;95.50
52189;DHT22;38162;45.926;13.608;2022-11-15T16:07:21;13.40;95.50
52189;DHT22;38162;45.926;13.608;2022-11-15T16:09:49;13.40;95.50
52189;DHT22;38162;45.926;13.608;2022-11-15T16:12:28;13.40;95.60
52189;DHT22;38162;45.926;13.608;2022-11-15T16:14:54;13.40;95.60
52189;DHT22;38162;45.926;13.608;2022-11-15T16:17:23;13.40;95.70
52189;DHT22;38162;45.926;13.608;2022-11-15T16:19:50;13.40;95.70
52189;DHT22;38162;45.926;13.608;2022-11-15T16:22:16;13.40;95.70
52189;DHT22;38162;45.926;13.608;2022-11-15T16:24:41;13.40;95.80
52189;DHT22;38162;45.926;13.608;2022-11-15T16:27:18;13.40;95.80
52189;DHT22;38162;45.926;13.608;2022-11-15T16:29:45;13.40;95.80
52189;DHT22;38162;45.926;13.608;2022-11-15T16:32:11;13.40;95.80
52189;DHT22;38162;45.926;13.608;2022-11-15T16:34:38;13.40;95.80
52189;DHT22;38162;45.926;13.608;2022-11-15T16:37:04;13.40;95.90
52189;DHT22;38162;45.926;13.608;2022-11-15T16:39:30;13.40;95.90
52189;DHT22;38162;45.926;13.608;2022-11-15T16:41:57;13.40;95.90
52189;DHT22;38162;45.926;13.608;2022-11-15T16:44:23;13.40;96.00
52189;DHT22;38162;45.926;13.608;2022-11-15T16:46:49;13.40;96.00
52189;DHT22;38162;45.926;13.608;2022-11-15T16:49:17;13.40;96.10
52189;DHT22;38162;45.926;13.608;2022-11-15T16:51:45;13.40;96.10
52189;DHT22;38162;45.926;13.608;2022-11-15T16:54:11;13.40;96.20
52189;DHT22;38162;45.926;13.608;2022-11-15T16:56:38;13.40;96.20
52189;DHT22;38162;45.926;13.608;2022-11-15T16:59:04;13.40;96.20
52189;DHT22;38162;45.926;13.608;2022-11-15T17:01:34;13.40;96.20
52189;DHT22;38162;45.926;13.608;2022-11-15T17:04:01;13.40;96.30
52189;DHT22;38162;45.926;13.608;2022-11-15T17:06:40;13.40;96.30
52189;DHT22;38162;45.926;13.608;2022-11-15T17:09:20;13.40;96.30
52189;DHT22;38162;45.926;13.608;2022-11-15T17:11:48;13.40;96.30
52189;DHT22;38162;45.926;13.608;2022-11-15T17:14:15;13.40;96.30
52189;DHT22;38162;45.926;13.608;2022-11-15T17:16:41;13.40;96.30
52189;DHT22;38162;45.926;13.608;2022-11-15T17:19:18;13.40;96.30
52189;DHT22;38162;45.926;13.608;2022-11-15T17:21:45;13.40;96.30
52189;DHT22;38162;45.926;13.608;2022-11-15T17:24:11;13.40;96.30
52189;DHT22;38162;45.926;13.608;2022-11-15T17:26:37;13.30;96.30
52189;DHT22;38162;45.926;13.608;2022-11-15T17:29:04;13.30;96.30
52189;DHT22;38162;45.926;13.608;2022-11-15T17:31:33;13.40;96.50
52189;DHT22;38162;45.926;13.608;2022-11-15T17:34:01;13.40;96.50
52189;DHT22;38162;45.926;13.608;2022-11-15T17:36:27;13.40;96.60
52189;DHT22;38162;45.926;13.608;2022-11-15T17:38:53;13.30;96.60
52189;DHT22;38162;45.926;13.608;2022-11-15T17:41:18;13.30;96.60
52189;DHT22;38162;45.926;13.608;2022-11-15T17:43:46;13.30;96.60
52189;DHT22;38162;45.926;13.608;2022-11-15T17:46:13;13.30;96.60
52189;DHT22;38162;45.926;13.608;2022-11-15T17:48:39;13.30;96.70
52189;DHT22;38162;45.926;13.608;2022-11-15T17:51:08;13.30;96.70
52189;DHT22;38162;45.926;13.608;2022-11-15T17:53:36;13.30;96.70
52189;DHT22;38162;45.926;13.608;2022-11-15T17:56:09;13.40;96.80
52189;DHT22;38162;45.926;13.608;2022-11-15T17:58:35;13.40;96.90
52189;DHT22;38162;45.926;13.608;2022-11-15T18:01:28;13.40;97.00
52189;DHT22;38162;45.926;13.608;2022-11-15T18:03:56;13.40;97.00
52189;DHT22;38162;45.926;13.608;2022-11-15T18:06:23;13.30;96.90
52189;DHT22;38162;45.926;13.608;2022-11-15T18:08:50;13.30;96.80
52189;DHT22;38162;45.926;13.608;2022-11-15T18:11:25;13.30;96.80
52189;DHT22;38162;45.926;13.608;2022-11-15T18:13:53;13.30;96.80
52189;DHT22;38162;45.926;13.608;2022-11-15T18:16:21;13.30;96.90
52189;DHT22;38162;45.926;13.608;2022-11-15T18:18:47;13.20;96.90
52189;DHT22;38162;45.926;13.608;2022-11-15T18:21:21;13.30;96.80
52189;DHT22;38162;45.926;13.608;2022-11-15T18:23:48;13.20;96.80
52189;DHT22;38162;45.926;13.608;2022-11-15T18:26:17;13.30;96.80
52189;DHT22;38162;45.926;13.608;2022-11-15T18:28:47;13.20;96.60
52189;DHT22;38162;45.926;13.608;2022-11-15T18:31:19;13.20;96.70
52189;DHT22;38162;45.926;13.608;2022-11-15T18:33:46;13.20;96.80
52189;DHT22;38162;45.926;13.608;2022-11-15T18:36:15;13.20;96.90
52189;DHT22;38162;45.926;13.608;2022-11-15T18:38:41;13.20;96.90
52189;DHT22;38162;45.926;13.608;2022-11-15T18:41:15;13.20;96.90
52189;DHT22;38162;45.926;13.608;2022-11-15T18:43:46;13.20;96.90
52189;DHT22;38162;45.926;13.608;2022-11-15T18:46:17;13.20;96.90
52189;DHT22;38162;45.926;13.608;2022-11-15T18:48:44;13.20;97.00
52189;DHT22;38162;45.926;13.608;2022-11-15T18:51:16;13.20;97.00
52189;DHT22;38162;45.926;13.608;2022-11-15T18:53:42;13.20;97.00
52189;DHT22;38162;45.926;13.608;2022-11-15T18:56:11;13.20;97.00
52189;DHT22;38162;45.926;13.608;2022-11-15T18:58:39;13.20;97.00
52189;DHT22;38162;45.926;13.608;2022-11-15T19:01:08;13.20;97.00
52189;DHT22;38162;45.926;13.608;2022-11-15T19:03:35;13.20;97.00
52189;DHT22;38162;45.926;13.608;2022-11-15T19:06:03;13.20;97.10
52189;DHT22;38162;45.926;13.608;2022-11-15T19:08:29;13.20;97.10
52189;DHT22;38162;45.926;13.608;2022-11-15T19:10:55;13.20;97.20
52189;DHT22;38162;45.926;13.608;2022-11-15T19:13:20;13.20;97.20
52189;DHT22;38162;45.926;13.608;2022-11-15T19:15:46;13.20;97.30
52189;DHT22;38162;45.926;13.608;2022-11-15T19:18:11;13.20;97.30
52189;DHT22;38162;45.926;13.608;2022-11-15T19:20:37;13.20;97.40
52189;DHT22;38162;45.926;13.608;2022-11-15T19:23:03;13.20;97.40
52189;DHT22;38162;45.926;13.608;2022-11-15T19:25:28;13.20;97.40
52189;DHT22;38162;45.926;13.608;2022-11-15T19:27:54;13.20;97.40
52189;DHT22;38162;45.926;13.608;2022-11-15T19:30:20;13.20;97.40
52189;DHT22;38162;45.926;13.608;2022-11-15T19:32:45;13.20;97.40
52189;DHT22;38162;45.926;13.608;2022-11-15T19:35:11;13.20;97.50
52189;DHT22;38162;45.926;13.608;2022-11-15T19:37:37;13.20;97.50
52189;DHT22;38162;45.926;13.608;2022-11-15T19:40:02;13.20;97.40
52189;DHT22;38162;45.926;13.608;2022-11-15T19:42:28;13.20;97.40
52189;DHT22;38162;45.926;13.608;2022-11-15T19:44:54;13.20;97.50
52189;DHT22;38162;45.926;13.608;2022-11-15T19:47:19;13.20;97.40
52189;DHT22;38162;45.926;13.608;2022-11-15T19:49:45;13.20;97.50
52189;DHT22;38162;45.926;13.608;2022-11-15T19:52:11;13.10;97.40
52189;DHT22;38162;45.926;13.608;2022-11-15T19:54:36;13.20;97.50
52189;DHT22;38162;45.926;13.608;2022-11-15T19:57:02;13.20;97.50
52189;DHT22;38162;45.926;13.608;2022-11-15T19:59:28;13.20;97.50
52189;DHT22;38162;45.926;13.608;2022-11-15T20:01:53;13.20;97.50
52189;DHT22;38162;45.926;13.608;2022-11-15T20:04:19;13.20;97.40
52189;DHT22;38162;45.926;13.608;2022-11-15T20:06:45;13.20;97.40
52189;DHT22;38162;45.926;13.608;2022-11-15T20:09:12;13.20;97.30
52189;DHT22;38162;45.926;13.608;2022-11-15T20:11:38;13.20;97.30
52189;DHT22;38162;45.926;13.608;2022-11-15T20:14:04;13.20;97.30
52189;DHT22;38162;45.926;13.608;2022-11-15T20:16:32;13.10;97.30
52189;DHT22;38162;45.926;13.608;2022-11-15T20:18:58;13.20;97.60
52189;DHT22;38162;45.926;13.608;2022-11-15T20:21:24;13.20;97.30
52189;DHT22;38162;45.926;13.608;2022-11-15T20:23:50;13.20;97.30
52189;DHT22;38162;45.926;13.608;2022-11-15T20:26:16;13.20;97.30
52189;DHT22;38162;45.926;13.608;2022-11-15T20:28:42;13.20;97.40
52189;DHT22;38162;45.926;13.608;2022-11-15T20:31:09;13.10;97.40
52189;DHT22;38162;45.926;13.608;2022-11-15T20:33:35;13.20;97.30
52189;DHT22;38162;45.926;13.608;2022-11-15T20:36:10;13.20;97.30
52189;DHT22;38162;45.926;13.608;2022-11-15T20:38:36;13.10;97.30
52189;DHT22;38162;45.926;13.608;2022-11-15T20:41:02;13.10;97.40
52189;DHT22;38162;45.926;13.608;2022-11-15T20:43:28;13.10;97.40
52189;DHT22;38162;45.926;13.608;2022-11-15T20:45:54;13.10;97.40
52189;DHT22;38162;45.926;13.608;2022-11-15T20:48:20;13.10;97.50
52189;DHT22;38162;45.926;13.608;2022-11-15T20:50:46;13.10;97.50
52189;DHT22;38162;45.926;13.608;2022-11-15T20:53:14;13.10;97.50
52189;DHT22;38162;45.926;13.608;2022-11-15T20:55:41;13.10;97.60
52189;DHT22;38162;45.926;13.608;2022-11-15T20:58:08;13.10;97.60
52189;DHT22;38162;45.926;13.608;2022-11-15T21:00:35;13.10;97.60
52189;DHT22;38162;45.926;13.608;2022-11-15T21:03:02;13.10;97.60
52189;DHT22;38162;45.926;13.608;2022-11-15T21:05:32;13.10;97.60
52189;DHT22;38162;45.926;13.608;2022-11-15T21:07:58;13.10;97.60
52189;DHT22;38162;45.926;13.608;2022-11-15T21:10:24;13.10;97.60
52189;DHT22;38162;45.926;13.608;2022-11-15T21:13:08;13.10;97.80
52189;DHT22;38162;45.926;13.608;2022-11-15T21:15:34;13.10;97.60
52189;DHT22;38162;45.926;13.608;2022-11-15T21:17:59;13.10;97.50
52189;DHT22;38162;45.926;13.608;2022-11-15T21:20:25;13.10;97.50
52189;DHT22;38162;45.926;13.608;2022-11-15T21:22:51;13.10;97.60
52189;DHT22;38162;45.926;13.608;2022-11-15T21:25:16;13.10;97.50
52189;DHT22;38162;45.926;13.608;2022-11-15T21:27:42;13.10;97.60
52189;DHT22;38162;45.926;13.608;2022-11-15T21:30:08;13.10;97.70
52189;DHT22;38162;45.926;13.608;2022-11-15T21:32:34;13.00;97.70
52189;DHT22;38162;45.926;13.608;2022-11-15T21:34:59;13.10;97.80
52189;DHT22;38162;45.926;13.608;2022-11-15T21:37:25;13.00;97.80
52189;DHT22;38162;45.926;13.608;2022-11-15T21:39:51;13.00;97.90
52189;DHT22;38162;45.926;13.608;2022-11-15T21:42:16;13.00;97.90
52189;DHT22;38162;45.926;13.608;2022-11-15T21:44:42;13.00;97.90
52189;DHT22;38162;45.926;13.608;2022-11-15T21:47:09;13.00;98.00
52189;DHT22;38162;45.926;13.608;2022-11-15T21:49:34;13.00;98.00
52189;DHT22;38162;45.926;13.608;2022-11-15T21:52:00;13.00;98.10
52189;DHT22;38162;45.926;13.608;2022-11-15T21:54:26;13.00;98.10
52189;DHT22;38162;45.926;13.608;2022-11-15T21:56:51;13.00;98.10
52189;DHT22;38162;45.926;13.608;2022-11-15T21:59:17;13.00;98.10
52189;DHT22;38162;45.926;13.608;2022-11-15T22:01:43;13.00;98.00
52189;DHT22;38162;45.926;13.608;2022-11-15T22:04:27;13.00;98.00
52189;DHT22;38162;45.926;13.608;2022-11-15T22:06:53;13.00;98.00
52189;DHT22;38162;45.926;13.608;2022-11-15T22:09:19;13.00;98.00
52189;DHT22;38162;45.926;13.608;2022-11-15T22:11:44;13.00;98.10
52189;DHT22;38162;45.926;13.608;2022-11-15T22:14:10;12.90;98.10
52189;DHT22;38162;45.926;13.608;2022-11-15T22:16:36;12.90;98.20
52189;DHT22;38162;45.926;13.608;2022-11-15T22:19:02;12.90;98.20
52189;DHT22;38162;45.926;13.608;2022-11-15T22:21:28;12.90;98.30
52189;DHT22;38162;45.926;13.608;2022-11-15T22:23:53;12.90;98.30
52189;DHT22;38162;45.926;13.608;2022-11-15T22:26:19;12.90;98.40
52189;DHT22;38162;45.926;13.608;2022-11-15T22:28:45;12.90;98.40
52189;DHT22;38162;45.926;13.608;2022-11-15T22:31:11;12.90;98.40
52189;DHT22;38162;45.926;13.608;2022-11-15T22:33:37;12.90;98.40
52189;DHT22;38162;45.926;13.608;2022-11-15T22:36:04;12.90;98.40
52189;DHT22;38162;45.926;13.608;2022-11-15T22:38:30;12.90;98.30
52189;DHT22;38162;45.926;13.608;2022-11-15T22:40:56;12.90;98.30
52189;DHT22;38162;45.926;13.608;2022-11-15T22:43:23;12.90;98.30
52189;DHT22;38162;45.926;13.608;2022-11-15T22:45:57;12.90;98.50
52189;DHT22;38162;45.926;13.608;2022-11-15T22:48:26;12.80;98.50
52189;DHT22;38162;45.926;13.608;2022-11-15T22:50:52;12.90;98.50
52189;DHT22;38162;45.926;13.608;2022-11-15T22:53:18;12.90;98.60
52189;DHT22;38162;45.926;13.608;2022-11-15T22:55:49;12.90;98.60
52189;DHT22;38162;45.926;13.608;2022-11-15T22:58:15;12.90;98.50
52189;DHT22;38162;45.926;13.608;2022-11-15T23:00:40;12.90;98.50
52189;DHT22;38162;45.926;13.608;2022-11-15T23:03:06;12.80;98.50
52189;DHT22;38162;45.926;13.608;2022-11-15T23:05:32;12.90;98.50
52189;DHT22;38162;45.926;13.608;2022-11-15T23:07:58;12.80;98.50
52189;DHT22;38162;45.926;13.608;2022-11-15T23:10:23;12.80;98.60
52189;DHT22;38162;45.926;13.608;2022-11-15T23:13:11;12.80;98.60
52189;DHT22;38162;45.926;13.608;2022-11-15T23:15:49;12.80;98.70
52189;DHT22;38162;45.926;13.608;2022-11-15T23:18:34;12.80;98.70
52189;DHT22;38162;45.926;13.608;2022-11-15T23:21:11;12.80;98.70
52189;DHT22;38162;45.926;13.608;2022-11-15T23:23:37;12.80;98.70
52189;DHT22;38162;45.926;13.608;2022-11-15T23:26:03;12.80;98.60
52189;DHT22;38162;45.926;13.608;2022-11-15T23:28:30;12.80;98.60
52189;DHT22;38162;45.926;13.608;2022-11-15T23:31:02;12.80;98.60
52189;DHT22;38162;45.926;13.608;2022-11-15T23:33:46;12.80;98.60
52189;DHT22;38162;45.926;13.608;2022-11-15T23:36:27;12.80;98.50
52189;DHT22;38162;45.926;13.608;2022-11-15T23:38:53;12.80;98.60
52189;DHT22;38162;45.926;13.608;2022-11-15T23:41:20;12.70;98.50
52189;DHT22;38162;45.926;13.608;2022-11-15T23:43:46;12.70;98.50
52189;DHT22;38162;45.926;13.608;2022-11-15T23:46:12;12.70;98.50
52189;DHT22;38162;45.926;13.608;2022-11-15T23:48:37;12.70;98.60
52189;DHT22;38162;45.926;13.608;2022-11-15T23:51:03;12.70;98.60
52189;DHT22;38162;45.926;13.608;2022-11-15T23:53:29;12.70;98.60
52189;DHT22;38162;45.926;13.608;2022-11-15T23:56:10;12.70;98.60
52189;DHT22;38162;45.926;13.608;2022-11-15T23:58:36;12.70;98.60
